createdAt,value
2023-02-12T00:00:04.254Z,3.10
2023-02-12T00:02:32.105Z,3.20
2023-02-12T00:04:59.047Z,3.00
2023-02-12T00:07:25.786Z,2.90
2023-02-12T00:09:52.495Z,2.90
2023-02-12T00:12:19.438Z,3.00
2023-02-12T00:14:46.308Z,2.90
2023-02-12T00:17:13.230Z,3.00
2023-02-12T00:19:39.960Z,3.10
2023-02-12T00:22:06.748Z,3.10
2023-02-12T00:24:33.674Z,3.10
2023-02-12T00:27:00.413Z,3.20
2023-02-12T00:29:27.190Z,3.20
2023-02-12T00:31:53.950Z,3.30
2023-02-12T00:34:20.763Z,3.30
2023-02-12T00:36:47.534Z,3.40
2023-02-12T00:39:14.260Z,3.10
2023-02-12T00:41:40.973Z,3.10
2023-02-12T00:44:07.752Z,3.00
2023-02-12T00:46:34.578Z,3.10
2023-02-12T00:49:01.356Z,3.20
2023-02-12T00:51:28.119Z,3.20
2023-02-12T00:53:54.923Z,3.30
2023-02-12T00:56:21.675Z,3.20
2023-02-12T00:58:48.406Z,3.20
2023-02-12T01:01:15.174Z,2.90
2023-02-12T01:03:42.010Z,2.90
2023-02-12T01:06:09.029Z,3.00
2023-02-12T01:08:36.199Z,2.90
2023-02-12T01:11:04.686Z,3.00
2023-02-12T01:13:32.884Z,3.10
2023-02-12T01:16:09.078Z,3.20
2023-02-12T01:18:37.308Z,3.30
2023-02-12T01:21:17.334Z,3.30
2023-02-12T01:23:44.935Z,3.20
2023-02-12T01:26:12.857Z,3.10
2023-02-12T01:28:41.109Z,3.20
2023-02-12T01:31:19.509Z,3.30
2023-02-12T01:33:51.133Z,3.20
2023-02-12T01:36:18.216Z,3.20
2023-02-12T01:38:46.381Z,3.20
2023-02-12T01:41:16.367Z,3.20
2023-02-12T01:43:43.446Z,3.20
2023-02-12T01:46:12.834Z,3.30
2023-02-12T01:48:44.772Z,3.40
2023-02-12T01:51:16.892Z,3.20
2023-02-12T01:53:51.062Z,2.90
2023-02-12T01:56:18.660Z,2.70
2023-02-12T01:58:47.420Z,2.90
2023-02-12T02:01:19.698Z,3.00
2023-02-12T02:03:50.061Z,2.70
2023-02-12T02:06:21.386Z,2.70
2023-02-12T02:08:48.971Z,2.90
2023-02-12T02:11:34.112Z,3.00
2023-02-12T02:14:20.206Z,3.00
2023-02-12T02:17:01.238Z,3.00
2023-02-12T02:20:04.424Z,3.10
2023-02-12T02:22:40.027Z,3.20
2023-02-12T02:25:33.300Z,2.80
2023-02-12T02:28:00.053Z,2.50
2023-02-12T02:31:05.528Z,2.70
2023-02-12T02:33:51.313Z,2.90
2023-02-12T02:37:00.198Z,3.00
2023-02-12T02:39:52.934Z,3.00
2023-02-12T02:42:29.948Z,3.00
2023-02-12T02:45:08.879Z,3.10
2023-02-12T02:47:43.583Z,3.20
2023-02-12T02:50:14.404Z,3.20
2023-02-12T02:52:50.857Z,3.20
2023-02-12T02:55:20.088Z,3.20
2023-02-12T02:57:53.474Z,3.30
2023-02-12T03:00:38.757Z,3.40
2023-02-12T03:03:32.253Z,3.30
2023-02-12T03:06:10.974Z,3.10
2023-02-12T03:08:49.506Z,3.10
2023-02-12T03:11:28.725Z,3.30
2023-02-12T03:14:03.109Z,3.30
2023-02-12T03:16:32.617Z,3.20
2023-02-12T03:19:25.038Z,3.30
2023-02-12T03:22:02.895Z,3.40
2023-02-12T03:25:27.907Z,3.40
2023-02-12T03:28:01.820Z,3.50
2023-02-12T03:30:50.099Z,3.50
2023-02-12T03:33:30.278Z,3.50
2023-02-12T03:36:15.168Z,3.50
2023-02-12T03:38:49.941Z,3.60
2023-02-12T03:41:32.355Z,3.60
2023-02-12T03:44:18.323Z,3.70
2023-02-12T03:46:57.805Z,3.60
2023-02-12T03:49:31.509Z,3.60
2023-02-12T03:51:59.134Z,3.60
2023-02-12T03:54:26.820Z,3.60
2023-02-12T03:57:10.508Z,3.30
2023-02-12T03:59:39.215Z,3.40
2023-02-12T04:02:06.886Z,3.40
2023-02-12T04:04:34.864Z,3.40
2023-02-12T04:07:01.921Z,3.30
2023-02-12T04:09:31.035Z,3.30
2023-02-12T04:12:19.273Z,3.30
2023-02-12T04:15:04.778Z,3.40
2023-02-12T04:18:05.347Z,3.50
2023-02-12T04:20:50.712Z,3.60
2023-02-12T04:23:24.374Z,3.60
2023-02-12T04:26:05.575Z,3.70
2023-02-12T04:29:04.287Z,3.70
2023-02-12T04:31:41.577Z,3.70
2023-02-12T04:34:11.187Z,3.80
2023-02-12T04:36:46.176Z,3.80
2023-02-12T04:39:20.321Z,3.80
2023-02-12T04:41:47.350Z,3.90
2023-02-12T04:44:25.349Z,3.90
2023-02-12T04:46:52.705Z,3.90
2023-02-12T04:49:21.676Z,3.90
2023-02-12T04:51:49.597Z,3.80
2023-02-12T04:54:18.552Z,3.40
2023-02-12T04:56:46.040Z,3.50
2023-02-12T04:59:13.882Z,3.50
2023-02-12T05:01:41.607Z,3.60
2023-02-12T05:04:10.088Z,3.70
2023-02-12T05:06:37.926Z,3.70
2023-02-12T05:09:05.926Z,3.70
2023-02-12T05:11:32.934Z,3.80
2023-02-12T05:13:59.836Z,3.80
2023-02-12T05:16:26.884Z,3.80
2023-02-12T05:18:53.534Z,3.90
2023-02-12T05:21:20.429Z,3.90
2023-02-12T05:23:47.116Z,3.90
2023-02-12T05:26:17.405Z,3.50
2023-02-12T05:28:44.088Z,3.50
2023-02-12T05:31:16.019Z,3.50
2023-02-12T05:33:44.455Z,3.60
2023-02-12T05:36:15.227Z,3.70
2023-02-12T05:38:42.066Z,3.70
2023-02-12T05:41:18.056Z,3.70
2023-02-12T05:43:49.219Z,3.80
2023-02-12T05:46:17.924Z,3.80
2023-02-12T05:48:45.533Z,3.80
2023-02-12T05:51:22.005Z,3.90
2023-02-12T05:53:51.286Z,3.90
2023-02-12T05:56:22.120Z,3.90
2023-02-12T05:58:54.115Z,3.90
2023-02-12T06:01:27.921Z,3.90
2023-02-12T06:03:55.339Z,3.90
2023-02-12T06:06:22.146Z,3.90
2023-02-12T06:08:49.664Z,3.90
2023-02-12T06:11:17.506Z,3.80
2023-02-12T06:13:44.359Z,3.80
2023-02-12T06:16:25.671Z,3.80
2023-02-12T06:18:53.640Z,3.80
2023-02-12T06:21:21.621Z,3.70
2023-02-12T06:23:49.328Z,3.70
2023-02-12T06:26:16.575Z,3.70
2023-02-12T06:28:43.374Z,3.60
2023-02-12T06:31:23.126Z,3.60
2023-02-12T06:33:50.965Z,3.70
2023-02-12T06:36:18.649Z,3.70
2023-02-12T06:38:46.257Z,3.70
2023-02-12T06:41:13.338Z,3.60
2023-02-12T06:43:40.364Z,3.70
2023-02-12T06:46:08.130Z,3.70
2023-02-12T06:48:34.984Z,3.80
2023-02-12T06:51:13.813Z,3.80
2023-02-12T06:53:40.842Z,3.90
2023-02-12T06:56:11.710Z,3.90
2023-02-12T06:58:39.563Z,4.00
2023-02-12T07:01:18.433Z,4.00
2023-02-12T07:03:49.907Z,4.10
2023-02-12T07:06:17.014Z,4.10
2023-02-12T07:08:43.741Z,4.10
2023-02-12T07:11:10.681Z,4.10
2023-02-12T07:13:37.521Z,4.20
2023-02-12T07:16:09.658Z,4.20
2023-02-12T07:18:37.120Z,4.20
2023-02-12T07:21:05.367Z,4.20
2023-02-12T07:23:32.200Z,4.20
2023-02-12T07:26:12.123Z,4.20
2023-02-12T07:28:39.357Z,4.30
2023-02-12T07:31:09.022Z,4.30
2023-02-12T07:33:36.791Z,4.30
2023-02-12T07:36:05.702Z,4.30
2023-02-12T07:38:33.881Z,4.40
2023-02-12T07:41:16.975Z,4.40
2023-02-12T07:43:45.580Z,4.40
2023-02-12T07:46:16.485Z,4.40
2023-02-12T07:48:44.302Z,4.50
2023-02-12T07:51:14.140Z,4.50
2023-02-12T07:53:41.247Z,4.50
2023-02-12T07:56:18.443Z,4.50
2023-02-12T07:58:47.285Z,4.60
2023-02-12T08:01:23.448Z,4.60
2023-02-12T08:03:51.212Z,4.70
2023-02-12T08:06:24.227Z,4.70
2023-02-12T08:08:52.318Z,4.80
2023-02-12T08:11:19.229Z,4.80
2023-02-12T08:13:46.120Z,4.90
2023-02-12T08:16:15.451Z,5.00
2023-02-12T08:18:42.811Z,4.80
2023-02-12T08:21:12.113Z,4.90
2023-02-12T08:23:38.900Z,4.90
2023-02-12T08:26:07.080Z,4.90
2023-02-12T08:28:34.198Z,4.80
2023-02-12T08:31:06.374Z,4.80
2023-02-12T08:33:33.108Z,4.90
2023-02-12T08:36:15.359Z,4.90
2023-02-12T08:38:43.336Z,4.90
2023-02-12T08:41:12.942Z,4.80
2023-02-12T08:43:40.504Z,4.90
2023-02-12T08:46:13.602Z,4.90
2023-02-12T08:48:41.998Z,5.00
2023-02-12T08:51:11.344Z,5.00
2023-02-12T08:53:39.666Z,5.10
2023-02-12T08:56:07.322Z,5.10
2023-02-12T08:58:34.954Z,5.10
2023-02-12T09:01:02.486Z,5.00
2023-02-12T09:03:29.238Z,5.10
2023-02-12T09:05:56.391Z,5.20
2023-02-12T09:08:23.249Z,5.20
2023-02-12T09:10:49.959Z,5.30
2023-02-12T09:13:16.631Z,5.40
2023-02-12T09:15:45.511Z,5.30
2023-02-12T09:18:13.965Z,5.40
2023-02-12T09:20:45.112Z,5.50
2023-02-12T09:23:13.945Z,5.40
2023-02-12T09:25:46.078Z,5.50
2023-02-12T09:28:14.522Z,5.70
2023-02-12T09:30:41.605Z,5.70
2023-02-12T09:33:10.011Z,5.80
2023-02-12T09:35:38.536Z,5.80
2023-02-12T09:38:06.396Z,5.90
2023-02-12T09:40:36.598Z,6.00
2023-02-12T09:43:30.359Z,6.10
2023-02-12T09:46:26.327Z,6.10
2023-02-12T09:49:10.217Z,6.10
2023-02-12T09:51:39.371Z,6.20
2023-02-12T09:54:19.482Z,6.20
2023-02-12T09:56:53.098Z,6.30
2023-02-12T09:59:44.159Z,6.40
2023-02-12T10:02:18.889Z,6.70
2023-02-12T10:05:00.166Z,6.80
2023-02-12T10:07:54.316Z,7.00
2023-02-12T10:10:32.845Z,7.40
2023-02-12T10:13:24.904Z,7.70
2023-02-12T10:16:00.476Z,7.90
2023-02-12T10:18:36.558Z,8.10
2023-02-12T10:21:24.300Z,8.30
2023-02-12T10:23:57.128Z,8.70
2023-02-12T10:26:33.131Z,9.00
2023-02-12T10:29:17.164Z,9.20
2023-02-12T10:31:47.218Z,9.50
2023-02-12T10:34:26.263Z,9.80
2023-02-12T10:36:58.985Z,10.10
2023-02-12T10:39:41.259Z,10.20
2023-02-12T10:42:30.765Z,10.20
2023-02-12T10:44:57.481Z,10.20
2023-02-12T10:47:26.316Z,10.20
2023-02-12T10:50:00.002Z,10.50
2023-02-12T10:52:55.843Z,10.60
2023-02-12T10:55:29.240Z,10.80
2023-02-12T10:57:56.912Z,11.10
2023-02-12T11:00:26.718Z,11.30
2023-02-12T11:03:24.050Z,11.60
2023-02-12T11:05:50.861Z,11.70
2023-02-12T11:08:34.518Z,11.70
2023-02-12T11:11:08.734Z,11.90
2023-02-12T11:13:36.806Z,12.20
2023-02-12T11:16:03.923Z,12.30
2023-02-12T11:18:33.153Z,12.20
2023-02-12T11:21:11.722Z,12.30
2023-02-12T11:23:43.632Z,12.50
2023-02-12T11:26:19.410Z,12.70
2023-02-12T11:29:20.033Z,12.80
2023-02-12T11:32:02.227Z,12.70
2023-02-12T11:34:29.858Z,12.50
2023-02-12T11:36:57.602Z,12.30
2023-02-12T11:39:34.273Z,12.40
2023-02-12T11:42:15.324Z,12.40
2023-02-12T11:44:47.996Z,12.40
2023-02-12T11:47:22.165Z,12.40
2023-02-12T11:49:56.506Z,12.20
2023-02-12T11:52:27.074Z,11.90
2023-02-12T11:54:59.079Z,11.80
2023-02-12T11:57:39.182Z,11.70
2023-02-12T12:00:15.272Z,11.50
2023-02-12T12:02:48.291Z,11.30
2023-02-12T12:05:19.778Z,11.30
2023-02-12T12:07:56.182Z,11.40
2023-02-12T12:10:32.054Z,11.30
2023-02-12T12:13:03.403Z,11.30
2023-02-12T12:15:52.708Z,11.30
2023-02-12T12:18:58.562Z,11.20
2023-02-12T12:21:28.287Z,11.20
2023-02-12T12:24:11.258Z,11.10
2023-02-12T12:26:41.831Z,11.10
2023-02-12T12:29:15.385Z,11.10
2023-02-12T12:31:46.256Z,11.00
2023-02-12T12:34:24.508Z,11.00
2023-02-12T12:37:09.659Z,10.90
2023-02-12T12:40:00.882Z,10.90
2023-02-12T12:42:50.596Z,11.00
2023-02-12T12:45:42.047Z,11.10
2023-02-12T12:48:25.520Z,10.90
2023-02-12T12:50:57.900Z,10.50
2023-02-12T12:53:40.210Z,10.60
2023-02-12T12:56:23.361Z,10.70
2023-02-12T12:59:11.360Z,10.80
2023-02-12T13:01:44.447Z,10.80
2023-02-12T13:05:04.110Z,10.60
2023-02-12T13:07:55.988Z,10.60
2023-02-12T13:10:53.559Z,10.70
2023-02-12T13:13:35.997Z,10.80
2023-02-12T13:16:05.543Z,10.80
2023-02-12T13:18:59.069Z,10.90
2023-02-12T13:21:45.013Z,10.90
2023-02-12T13:24:29.752Z,11.20
2023-02-12T13:26:59.841Z,11.30
2023-02-12T13:29:38.621Z,11.20
2023-02-12T13:32:14.427Z,11.30
2023-02-12T13:34:43.356Z,11.30
2023-02-12T13:37:25.766Z,11.30
2023-02-12T13:39:53.689Z,11.60
2023-02-12T13:42:50.080Z,11.60
2023-02-12T13:45:33.846Z,11.90
2023-02-12T13:48:34.089Z,12.30
2023-02-12T13:51:19.126Z,12.00
2023-02-12T13:53:58.801Z,11.70
2023-02-12T13:56:43.831Z,11.70
2023-02-12T13:59:54.129Z,11.50
2023-02-12T14:02:34.069Z,12.20
2023-02-12T14:05:15.130Z,13.30
2023-02-12T14:07:45.670Z,13.90
2023-02-12T14:10:35.059Z,14.60
2023-02-12T14:13:23.765Z,15.30
2023-02-12T14:15:56.281Z,15.80
2023-02-12T14:18:36.072Z,15.80
2023-02-12T14:21:12.128Z,16.30
2023-02-12T14:23:42.105Z,15.60
2023-02-12T14:26:13.721Z,15.30
2023-02-12T14:28:52.987Z,14.20
2023-02-12T14:31:21.271Z,13.90
2023-02-12T14:34:12.901Z,13.60
2023-02-12T14:36:45.160Z,13.80
2023-02-12T14:39:21.159Z,13.90
2023-02-12T14:41:55.384Z,13.60
2023-02-12T14:44:26.794Z,13.40
2023-02-12T14:46:58.016Z,13.30
2023-02-12T14:49:47.607Z,12.60
2023-02-12T14:52:14.324Z,12.00
2023-02-12T14:54:47.874Z,11.40
2023-02-12T14:57:29.286Z,10.90
2023-02-12T15:00:04.287Z,10.60
2023-02-12T15:02:36.196Z,10.50
2023-02-12T15:05:12.361Z,10.40
2023-02-12T15:07:52.319Z,10.30
2023-02-12T15:10:23.021Z,10.20
2023-02-12T15:13:16.558Z,10.20
2023-02-12T15:15:52.778Z,10.30
2023-02-12T15:18:28.089Z,10.20
2023-02-12T15:21:06.801Z,10.00
2023-02-12T15:23:40.645Z,9.80
2023-02-12T15:26:20.506Z,9.50
2023-02-12T15:28:50.342Z,9.30
2023-02-12T15:31:20.578Z,9.00
2023-02-12T15:33:50.818Z,8.70
2023-02-12T15:36:24.326Z,8.60
2023-02-12T15:38:54.439Z,8.50
2023-02-12T15:41:28.159Z,8.50
2023-02-12T15:43:54.955Z,8.40
2023-02-12T15:46:21.965Z,8.30
2023-02-12T15:48:49.606Z,8.20
2023-02-12T15:51:27.993Z,8.10
2023-02-12T15:53:55.109Z,8.00
2023-02-12T15:56:25.846Z,7.90
2023-02-12T15:58:55.638Z,7.90
2023-02-12T16:01:35.285Z,7.70
2023-02-12T16:04:05.336Z,7.60
2023-02-12T16:06:34.449Z,7.50
2023-02-12T16:09:16.732Z,7.50
2023-02-12T16:11:45.665Z,7.40
2023-02-12T16:14:43.404Z,7.30
2023-02-12T16:17:25.477Z,7.20
2023-02-12T16:20:01.174Z,7.10
2023-02-12T16:22:32.606Z,7.00
2023-02-12T16:25:00.236Z,7.00
2023-02-12T16:27:33.001Z,6.90
2023-02-12T16:30:03.875Z,6.80
2023-02-12T16:32:36.563Z,6.60
2023-02-12T16:35:07.120Z,6.60
2023-02-12T16:37:36.831Z,6.60
2023-02-12T16:40:10.088Z,6.50
2023-02-12T16:42:36.826Z,6.40
2023-02-12T16:45:23.460Z,6.40
2023-02-12T16:47:51.232Z,6.30
2023-02-12T16:50:18.783Z,6.20
2023-02-12T16:52:45.459Z,6.40
2023-02-12T16:55:15.663Z,6.10
2023-02-12T16:57:42.589Z,6.00
2023-02-12T17:00:12.288Z,5.90
2023-02-12T17:02:38.994Z,5.90
2023-02-12T17:05:07.328Z,5.90
2023-02-12T17:07:34.511Z,5.70
2023-02-12T17:10:01.591Z,5.70
2023-02-12T17:12:28.947Z,5.70
2023-02-12T17:14:56.006Z,5.60
2023-02-12T17:17:22.930Z,5.60
2023-02-12T17:19:49.721Z,5.50
2023-02-12T17:22:26.830Z,5.50
2023-02-12T17:24:54.370Z,5.40
2023-02-12T17:27:21.163Z,5.40
2023-02-12T17:29:47.886Z,5.40
2023-02-12T17:32:16.195Z,5.30
2023-02-12T17:34:48.693Z,5.40
2023-02-12T17:37:16.419Z,5.30
2023-02-12T17:39:43.263Z,5.30
2023-02-12T17:42:10.076Z,5.20
2023-02-12T17:44:36.851Z,5.20
2023-02-12T17:47:03.601Z,5.10
2023-02-12T17:49:31.187Z,5.10
2023-02-12T17:51:57.971Z,5.00
2023-02-12T17:54:24.719Z,4.90
2023-02-12T17:56:51.401Z,4.90
2023-02-12T17:59:19.044Z,4.90
2023-02-12T18:01:45.733Z,4.80
2023-02-12T18:04:12.522Z,4.80
2023-02-12T18:06:39.255Z,4.70
2023-02-12T18:09:06.088Z,4.80
2023-02-12T18:11:33.145Z,4.70
2023-02-12T18:14:00.686Z,4.70
2023-02-12T18:16:30.859Z,4.60
2023-02-12T18:18:59.816Z,4.60
2023-02-12T18:21:26.558Z,4.60
2023-02-12T18:23:54.068Z,4.50
2023-02-12T18:26:21.315Z,4.50
2023-02-12T18:28:48.165Z,4.50
2023-02-12T18:31:15.853Z,4.50
2023-02-12T18:33:42.619Z,4.40
2023-02-12T18:36:17.441Z,4.40
2023-02-12T18:38:45.755Z,4.40
2023-02-12T18:41:18.721Z,4.40
2023-02-12T18:43:45.787Z,4.20
2023-02-12T18:46:19.164Z,4.10
2023-02-12T18:48:46.299Z,4.10
2023-02-12T18:51:22.513Z,4.10
2023-02-12T18:53:57.246Z,4.00
2023-02-12T18:56:24.039Z,4.00
2023-02-12T18:58:56.585Z,4.00
2023-02-12T19:01:24.051Z,4.00
2023-02-12T19:03:55.099Z,4.10
2023-02-12T19:06:22.948Z,4.00
2023-02-12T19:08:53.528Z,4.00
2023-02-12T19:11:20.316Z,4.00
2023-02-12T19:13:48.639Z,4.00
2023-02-12T19:16:17.550Z,4.00
2023-02-12T19:18:44.644Z,4.00
2023-02-12T19:21:13.806Z,3.80
2023-02-12T19:23:40.647Z,3.70
2023-02-12T19:26:13.785Z,3.70
2023-02-12T19:28:41.235Z,3.80
2023-02-12T19:31:18.831Z,3.80
2023-02-12T19:33:46.159Z,3.90
2023-02-12T19:36:15.734Z,3.90
2023-02-12T19:38:42.777Z,4.00
2023-02-12T19:41:15.865Z,4.00
2023-02-12T19:43:43.144Z,4.00
2023-02-12T19:46:15.787Z,4.00
2023-02-12T19:48:43.588Z,4.00
2023-02-12T19:51:21.232Z,4.00
2023-02-12T19:53:48.708Z,4.00
2023-02-12T19:56:16.707Z,4.00
2023-02-12T19:58:44.851Z,4.00
2023-02-12T20:01:18.080Z,4.00
2023-02-12T20:03:46.824Z,4.00
2023-02-12T20:06:18.172Z,4.00
2023-02-12T20:08:44.952Z,3.90
2023-02-12T20:11:14.716Z,3.90
2023-02-12T20:13:41.835Z,3.90
2023-02-12T20:16:17.914Z,4.00
2023-02-12T20:18:45.655Z,3.90
2023-02-12T20:21:16.258Z,3.90
2023-02-12T20:23:42.997Z,3.90
2023-02-12T20:26:12.108Z,3.80
2023-02-12T20:28:39.111Z,3.80
2023-02-12T20:31:19.015Z,3.80
2023-02-12T20:33:46.592Z,3.90
2023-02-12T20:36:14.401Z,3.80
2023-02-12T20:38:43.509Z,3.80
2023-02-12T20:41:11.275Z,3.80
2023-02-12T20:43:39.147Z,3.80
2023-02-12T20:46:12.020Z,3.80
2023-02-12T20:48:39.682Z,3.80
2023-02-12T20:51:09.645Z,3.80
2023-02-12T20:53:36.897Z,3.70
2023-02-12T20:56:06.929Z,3.70
2023-02-12T20:58:34.381Z,3.70
2023-02-12T21:01:09.500Z,3.70
2023-02-12T21:03:36.978Z,3.70
2023-02-12T21:06:04.011Z,3.70
2023-02-12T21:08:31.362Z,3.70
2023-02-12T21:11:03.075Z,3.70
2023-02-12T21:13:29.862Z,3.70
2023-02-12T21:16:15.385Z,3.70
2023-02-12T21:18:42.180Z,3.70
2023-02-12T21:21:16.283Z,3.70
2023-02-12T21:23:42.993Z,3.70
2023-02-12T21:26:21.852Z,3.70
2023-02-12T21:28:50.002Z,3.70
2023-02-12T21:31:19.910Z,3.70
2023-02-12T21:33:47.821Z,3.70
2023-02-12T21:36:27.667Z,3.70
2023-02-12T21:38:55.479Z,3.70
2023-02-12T21:41:27.401Z,3.70
2023-02-12T21:43:57.955Z,3.70
2023-02-12T21:46:25.584Z,3.70
2023-02-12T21:48:52.769Z,3.70
2023-02-12T21:51:34.234Z,3.60
2023-02-12T21:54:03.880Z,3.60
2023-02-12T21:56:30.854Z,3.60
2023-02-12T21:59:00.689Z,3.60
2023-02-12T22:01:32.198Z,3.60
2023-02-12T22:04:01.379Z,3.50
2023-02-12T22:06:28.285Z,3.50
2023-02-12T22:08:56.612Z,3.50
2023-02-12T22:11:23.525Z,3.40
2023-02-12T22:13:50.290Z,3.40
2023-02-12T22:16:22.883Z,3.40
2023-02-12T22:18:52.846Z,3.40
2023-02-12T22:21:19.535Z,3.40
2023-02-12T22:23:46.233Z,3.40
2023-02-12T22:26:16.060Z,3.50
2023-02-12T22:28:57.420Z,3.50
2023-02-12T22:31:28.512Z,3.40
2023-02-12T22:33:57.900Z,3.40
2023-02-12T22:36:25.633Z,3.40
2023-02-12T22:38:53.906Z,3.40
2023-02-12T22:41:20.919Z,3.40
2023-02-12T22:43:48.191Z,3.40
2023-02-12T22:46:16.189Z,3.40
2023-02-12T22:48:43.808Z,3.40
2023-02-12T22:51:23.080Z,3.40
2023-02-12T22:53:50.245Z,3.50
2023-02-12T22:56:17.690Z,3.50
2023-02-12T22:58:44.752Z,3.50
2023-02-12T23:01:14.354Z,3.50
2023-02-12T23:03:41.597Z,3.60
2023-02-12T23:06:12.624Z,3.60
2023-02-12T23:08:39.644Z,3.60
2023-02-12T23:11:08.372Z,3.60
2023-02-12T23:13:36.528Z,3.70
2023-02-12T23:16:03.949Z,3.60
2023-02-12T23:18:31.377Z,3.60
2023-02-12T23:20:58.558Z,3.60
2023-02-12T23:23:25.560Z,3.60
2023-02-12T23:25:54.317Z,3.60
2023-02-12T23:28:22.552Z,3.60
2023-02-12T23:30:51.162Z,3.60
2023-02-12T23:33:19.155Z,3.60
2023-02-12T23:35:46.948Z,3.60
2023-02-12T23:38:13.840Z,3.60
2023-02-12T23:40:42.548Z,3.60
2023-02-12T23:43:09.501Z,3.60
2023-02-12T23:45:36.374Z,3.60
2023-02-12T23:48:03.210Z,3.60
2023-02-12T23:50:29.897Z,3.60
2023-02-12T23:52:56.739Z,3.60
2023-02-12T23:55:23.474Z,3.60
2023-02-12T23:57:50.518Z,3.60
